createdAt,value
2024-05-09T00:32:59.313Z,9.90
2024-05-09T00:35:26.478Z,9.80
2024-05-09T00:37:53.501Z,9.80
2024-05-09T00:40:30.763Z,9.70
2024-05-09T00:43:08.918Z,9.70
2024-05-09T00:45:36.217Z,9.60
2024-05-09T00:48:07.086Z,9.60
2024-05-09T00:50:37.966Z,9.50
2024-05-09T00:53:07.782Z,9.50
2024-05-09T00:55:36.397Z,9.50
2024-05-09T00:58:05.266Z,9.50
2024-05-09T01:00:38.797Z,9.40
2024-05-09T01:03:09.486Z,9.40
2024-05-09T01:05:39.207Z,9.40
2024-05-09T01:08:07.101Z,9.40
2024-05-09T01:10:35.803Z,9.40
2024-05-09T01:13:04.575Z,9.40
2024-05-09T01:15:31.990Z,9.40
2024-05-09T01:18:03.992Z,9.40
2024-05-09T01:20:39.816Z,9.40
2024-05-09T01:23:10.528Z,9.30
2024-05-09T01:25:37.861Z,9.30
2024-05-09T01:28:05.414Z,9.30
2024-05-09T01:30:35.613Z,9.30
2024-05-09T01:33:07.277Z,9.30
2024-05-09T01:35:36.310Z,9.30
2024-05-09T01:38:03.606Z,9.30
2024-05-09T01:40:37.332Z,9.30
2024-05-09T01:43:11.066Z,9.30
2024-05-09T01:45:39.899Z,9.20
2024-05-09T01:48:08.318Z,9.20
2024-05-09T01:50:39.860Z,9.20
2024-05-09T01:53:14.362Z,9.20
2024-05-09T01:55:42.454Z,9.20
2024-05-09T01:58:09.661Z,9.10
2024-05-09T02:00:40.780Z,9.10
2024-05-09T02:03:14.457Z,9.00
2024-05-09T02:05:45.077Z,9.00
2024-05-09T02:08:20.132Z,9.00
2024-05-09T02:10:49.254Z,8.90
2024-05-09T02:13:16.968Z,8.90
2024-05-09T02:15:44.215Z,8.90
2024-05-09T02:18:11.985Z,8.90
2024-05-09T02:20:41.080Z,8.90
2024-05-09T02:23:09.193Z,8.90
2024-05-09T02:25:36.467Z,8.80
2024-05-09T02:28:03.593Z,8.80
2024-05-09T02:30:38.763Z,8.70
2024-05-09T02:33:10.793Z,8.70
2024-05-09T02:35:39.896Z,8.80
2024-05-09T02:38:06.935Z,8.80
2024-05-09T02:40:37.876Z,8.70
2024-05-09T02:43:07.873Z,8.70
2024-05-09T02:45:35.369Z,8.70
2024-05-09T02:48:02.793Z,8.70
2024-05-09T02:50:37.172Z,8.70
2024-05-09T02:53:12.472Z,8.60
2024-05-09T02:55:40.237Z,8.60
2024-05-09T02:58:07.983Z,8.60
2024-05-09T03:00:39.666Z,8.50
2024-05-09T03:03:11.270Z,8.50
2024-05-09T03:05:40.903Z,8.40
2024-05-09T03:08:08.096Z,8.30
2024-05-09T03:10:37.427Z,8.30
2024-05-09T03:13:11.730Z,8.20
2024-05-09T03:15:38.899Z,8.20
2024-05-09T03:18:06.555Z,8.20
2024-05-09T03:20:35.753Z,8.10
2024-05-09T03:23:05.338Z,8.10
2024-05-09T03:25:32.882Z,8.20
2024-05-09T03:27:59.965Z,8.10
2024-05-09T03:30:38.396Z,8.10
2024-05-09T03:33:20.064Z,8.10
2024-05-09T03:35:49.035Z,8.20
2024-05-09T03:38:16.816Z,8.30
2024-05-09T03:40:48.355Z,8.30
2024-05-09T03:43:16.141Z,8.30
2024-05-09T03:45:43.721Z,8.10
2024-05-09T03:48:11.046Z,8.10
2024-05-09T03:50:38.587Z,8.10
2024-05-09T03:53:05.939Z,8.00
2024-05-09T03:55:32.940Z,8.00
2024-05-09T03:57:59.954Z,8.00
2024-05-09T04:00:35.172Z,8.00
2024-05-09T04:03:08.922Z,8.00
2024-05-09T04:05:40.563Z,8.10
2024-05-09T04:08:08.951Z,8.10
2024-05-09T04:10:36.107Z,8.10
2024-05-09T04:13:04.096Z,8.10
2024-05-09T04:15:31.641Z,8.10
2024-05-09T04:17:58.876Z,8.10
2024-05-09T04:20:36.152Z,8.00
2024-05-09T04:23:07.894Z,8.00
2024-05-09T04:25:35.667Z,8.00
2024-05-09T04:28:02.638Z,8.00
2024-05-09T04:30:37.281Z,8.10
2024-05-09T04:33:09.278Z,8.10
2024-05-09T04:35:38.891Z,8.10
2024-05-09T04:38:06.390Z,8.10
2024-05-09T04:40:36.207Z,8.10
2024-05-09T04:43:05.280Z,8.10
2024-05-09T04:45:32.455Z,8.20
2024-05-09T04:47:59.786Z,8.30
2024-05-09T04:50:35.533Z,8.30
2024-05-09T04:53:06.473Z,8.40
2024-05-09T04:55:36.262Z,8.40
2024-05-09T04:58:03.339Z,8.40
2024-05-09T05:00:36.038Z,8.40
2024-05-09T05:03:09.072Z,8.40
2024-05-09T05:05:41.136Z,8.50
2024-05-09T05:08:26.520Z,8.50
2024-05-09T05:10:53.521Z,8.60
2024-05-09T05:13:21.849Z,8.60
2024-05-09T05:15:52.096Z,8.60
2024-05-09T05:18:19.670Z,8.70
2024-05-09T05:20:47.146Z,8.80
2024-05-09T05:23:16.769Z,8.90
2024-05-09T05:25:44.976Z,8.90
2024-05-09T05:28:11.952Z,9.00
2024-05-09T05:30:40.093Z,9.00
2024-05-09T05:33:10.774Z,9.10
2024-05-09T05:35:39.192Z,9.20
2024-05-09T05:38:10.273Z,9.30
2024-05-09T05:40:38.695Z,9.40
2024-05-09T05:43:11.264Z,9.50
2024-05-09T05:45:39.028Z,9.50
2024-05-09T05:48:07.718Z,9.60
2024-05-09T05:50:37.483Z,9.70
2024-05-09T05:53:07.896Z,9.80
2024-05-09T05:55:39.550Z,9.90
2024-05-09T05:58:10.273Z,10.00
2024-05-09T06:00:39.498Z,10.10
2024-05-09T06:03:09.194Z,10.20
2024-05-09T06:05:39.471Z,10.40
2024-05-09T06:08:07.124Z,10.40
2024-05-09T06:10:38.438Z,10.60
2024-05-09T06:13:10.278Z,10.70
2024-05-09T06:15:37.353Z,10.80
2024-05-09T06:18:11.952Z,10.80
2024-05-09T06:20:42.247Z,10.90
2024-05-09T06:23:10.700Z,11.00
2024-05-09T06:25:37.951Z,11.10
2024-05-09T06:28:05.268Z,11.20
2024-05-09T06:30:38.760Z,11.30
2024-05-09T06:33:10.423Z,11.40
2024-05-09T06:35:38.995Z,11.50
2024-05-09T06:38:09.176Z,11.60
2024-05-09T06:40:39.785Z,11.60
2024-05-09T06:43:14.049Z,11.70
2024-05-09T06:45:41.537Z,11.80
2024-05-09T06:48:09.939Z,11.80
2024-05-09T06:50:39.088Z,11.90
2024-05-09T06:53:08.071Z,12.00
2024-05-09T06:55:35.923Z,12.10
2024-05-09T06:58:07.720Z,12.20
2024-05-09T07:00:39.499Z,12.30
2024-05-09T07:03:14.851Z,12.50
2024-05-09T07:05:44.961Z,12.60
2024-05-09T07:08:13.776Z,12.70
2024-05-09T07:10:41.048Z,12.80
2024-05-09T07:13:12.213Z,12.90
2024-05-09T07:15:40.011Z,13.00
2024-05-09T07:18:18.359Z,13.10
2024-05-09T07:20:47.676Z,13.20
2024-05-09T07:23:15.748Z,13.20
2024-05-09T07:25:43.725Z,13.30
2024-05-09T07:28:18.486Z,13.30
2024-05-09T07:30:46.172Z,13.50
2024-05-09T07:33:22.198Z,13.70
2024-05-09T07:35:50.667Z,14.00
2024-05-09T07:38:18.045Z,14.10
2024-05-09T07:40:45.374Z,14.10
2024-05-09T07:43:13.152Z,14.20
2024-05-09T07:45:50.333Z,14.30
2024-05-09T07:52:38.570Z,14.60
2024-05-09T07:53:49.677Z,14.70
2024-05-09T07:56:21.853Z,14.80
2024-05-09T07:58:51.460Z,14.90
2024-05-09T08:01:19.768Z,14.90
2024-05-09T08:03:49.162Z,14.90
2024-05-09T08:06:16.437Z,14.90
2024-05-09T08:08:43.357Z,14.90
2024-05-09T08:11:10.364Z,15.00
2024-05-09T08:13:37.492Z,15.10
2024-05-09T08:16:04.886Z,15.20
2024-05-09T08:18:32.140Z,15.20
2024-05-09T08:20:59.363Z,15.30
2024-05-09T08:23:26.339Z,15.40
2024-05-09T08:25:53.252Z,15.40
2024-05-09T08:28:20.741Z,15.50
2024-05-09T08:30:47.982Z,15.60
2024-05-09T08:33:15.537Z,15.60
2024-05-09T08:35:42.623Z,15.80
2024-05-09T08:38:09.726Z,15.90
2024-05-09T08:40:38.007Z,16.00
2024-05-09T08:43:11.392Z,16.00
2024-05-09T08:45:43.642Z,16.10
2024-05-09T08:48:14.146Z,16.30
2024-05-09T08:50:42.307Z,16.60
2024-05-09T08:53:09.948Z,16.90
2024-05-09T08:55:40.624Z,17.20
2024-05-09T08:58:16.435Z,17.50
2024-05-09T09:00:45.411Z,17.70
2024-05-09T09:03:15.996Z,18.20
2024-05-09T09:05:59.076Z,18.80
2024-05-09T09:08:26.520Z,19.60
2024-05-09T09:10:57.485Z,20.60
2024-05-09T09:13:25.465Z,21.40
2024-05-09T09:15:57.412Z,22.10
2024-05-09T09:18:26.484Z,22.70
2024-05-09T09:20:53.953Z,22.70
2024-05-09T09:23:21.118Z,22.90
2024-05-09T09:25:47.982Z,22.80
2024-05-09T09:28:15.195Z,22.90
2024-05-09T09:30:42.844Z,23.10
2024-05-09T09:33:10.758Z,23.10
2024-05-09T09:35:40.436Z,23.30
2024-05-09T09:38:08.359Z,23.60
2024-05-09T09:40:40.867Z,23.90
2024-05-09T09:43:23.247Z,24.00
2024-05-09T09:45:52.987Z,24.20
2024-05-09T09:48:21.749Z,24.20
2024-05-09T09:50:50.918Z,24.10
2024-05-09T09:53:19.176Z,23.60
2024-05-09T09:55:47.100Z,23.30
2024-05-09T09:58:16.812Z,23.10
2024-05-09T10:00:44.843Z,23.10
2024-05-09T10:03:12.127Z,22.90
2024-05-09T10:05:42.051Z,22.70
2024-05-09T10:08:12.320Z,22.50
2024-05-09T10:10:39.929Z,22.50
2024-05-09T10:13:08.075Z,22.70
2024-05-09T10:15:52.391Z,23.00
2024-05-09T10:18:27.017Z,23.00
2024-05-09T10:20:56.462Z,22.80
2024-05-09T10:23:31.118Z,22.90
2024-05-09T10:26:06.242Z,23.20
2024-05-09T10:28:36.807Z,23.60
2024-05-09T10:31:08.602Z,23.70
2024-05-09T10:33:49.703Z,23.70
2024-05-09T10:36:22.629Z,23.90
2024-05-09T10:38:50.725Z,24.00
2024-05-09T10:41:18.552Z,24.00
2024-05-09T10:43:46.088Z,24.00
2024-05-09T10:46:14.453Z,24.00
2024-05-09T10:48:44.961Z,24.10
2024-05-09T10:51:13.197Z,24.10
2024-05-09T10:53:42.203Z,23.90
2024-05-09T10:56:09.575Z,23.90
2024-05-09T10:58:36.955Z,23.90
2024-05-09T11:01:06.692Z,23.70
2024-05-09T11:03:35.014Z,23.50
2024-05-09T11:06:02.424Z,23.20
2024-05-09T11:08:31.889Z,23.00
2024-05-09T11:11:03.015Z,23.00
2024-05-09T11:13:32.072Z,22.70
2024-05-09T11:16:00.192Z,22.50
2024-05-09T11:18:32.152Z,22.30
2024-05-09T11:21:02.665Z,22.00
2024-05-09T11:23:30.695Z,21.90
2024-05-09T11:25:58.959Z,22.00
2024-05-09T11:28:28.885Z,22.10
2024-05-09T11:31:09.456Z,22.10
2024-05-09T11:33:45.726Z,22.10
2024-05-09T11:36:13.571Z,22.30
2024-05-09T11:38:41.080Z,22.60
2024-05-09T11:41:08.348Z,22.80
2024-05-09T11:43:35.500Z,22.60
2024-05-09T11:46:03.437Z,22.70
2024-05-09T11:48:31.246Z,22.70
2024-05-09T11:50:58.578Z,22.90
2024-05-09T11:53:25.440Z,23.20
2024-05-09T11:55:52.545Z,23.50
2024-05-09T11:58:21.407Z,23.60
2024-05-09T12:00:48.729Z,23.80
2024-05-09T12:03:16.099Z,24.00
2024-05-09T12:05:43.312Z,24.20
2024-05-09T12:08:10.393Z,24.20
2024-05-09T12:10:37.563Z,24.20
2024-05-09T12:13:06.546Z,24.40
2024-05-09T12:15:37.654Z,24.40
2024-05-09T12:18:06.421Z,24.50
2024-05-09T12:20:38.124Z,24.60
2024-05-09T12:23:09.653Z,24.70
2024-05-09T12:25:39.047Z,24.80
2024-05-09T12:28:07.424Z,24.80
2024-05-09T12:30:38.628Z,25.10
2024-05-09T12:33:08.876Z,25.00
2024-05-09T12:35:36.278Z,25.20
2024-05-09T12:38:04.019Z,25.40
2024-05-09T12:40:36.070Z,25.30
2024-05-09T12:43:07.413Z,25.00
2024-05-09T12:45:35.652Z,24.50
2024-05-09T12:48:04.641Z,24.20
2024-05-09T12:50:34.010Z,23.80
2024-05-09T12:53:03.051Z,23.70
2024-05-09T12:55:37.373Z,23.80
2024-05-09T12:58:12.079Z,23.90
2024-05-09T13:00:39.364Z,24.30
2024-05-09T13:03:07.173Z,24.60
2024-05-09T13:05:34.588Z,24.90
2024-05-09T13:08:03.489Z,25.10
2024-05-09T13:10:32.818Z,24.80
2024-05-09T13:13:01.913Z,24.40
2024-05-09T13:15:31.289Z,24.70
2024-05-09T13:18:02.219Z,24.50
2024-05-09T13:20:34.151Z,24.90
2024-05-09T13:23:04.643Z,24.80
2024-05-09T13:25:32.237Z,25.00
2024-05-09T13:27:59.279Z,25.40
2024-05-09T13:30:34.878Z,25.80
2024-05-09T13:33:07.309Z,26.10
2024-05-09T13:35:35.586Z,26.30
2024-05-09T13:38:04.506Z,26.30
2024-05-09T13:40:34.839Z,26.20
2024-05-09T13:43:04.829Z,25.60
2024-05-09T13:45:32.740Z,25.70
2024-05-09T13:48:00.193Z,25.60
2024-05-09T13:50:33.465Z,25.70
2024-05-09T13:53:05.417Z,25.70
2024-05-09T13:55:33.434Z,25.50
2024-05-09T13:58:01.069Z,25.20
2024-05-09T14:00:41.485Z,25.00
2024-05-09T14:03:14.999Z,24.50
2024-05-09T14:05:43.090Z,24.40
2024-05-09T14:08:10.300Z,24.20
2024-05-09T14:10:43.410Z,24.10
2024-05-09T14:13:10.946Z,24.00
2024-05-09T14:15:38.073Z,24.00
2024-05-09T14:18:06.247Z,24.20
2024-05-09T14:20:33.951Z,24.50
2024-05-09T14:23:01.150Z,24.90
2024-05-09T14:25:29.438Z,25.30
2024-05-09T14:27:58.051Z,25.60
2024-05-09T14:30:35.990Z,25.90
2024-05-09T14:33:06.345Z,25.90
2024-05-09T14:35:34.245Z,26.30
2024-05-09T14:38:01.461Z,26.10
2024-05-09T14:43:01.071Z,26.40
2024-05-09T14:45:29.424Z,26.70
2024-05-09T14:47:56.685Z,26.40
2024-05-09T14:50:32.143Z,26.20
2024-05-09T14:53:03.371Z,25.80
2024-05-09T14:55:30.572Z,26.20
2024-05-09T14:57:57.679Z,26.50
2024-05-09T15:00:29.030Z,26.70
2024-05-09T15:03:00.786Z,27.00
2024-05-09T15:05:27.868Z,26.80
2024-05-09T15:07:57.783Z,26.80
2024-05-09T15:10:33.706Z,26.70
2024-05-09T15:13:03.479Z,26.80
2024-05-09T15:15:30.807Z,26.80
2024-05-09T15:17:58.081Z,26.60
2024-05-09T15:20:33.046Z,26.10
2024-05-09T15:23:03.152Z,25.80
2024-05-09T15:25:30.605Z,25.60
2024-05-09T15:27:57.841Z,25.30
2024-05-09T15:32:54.935Z,24.90
2024-05-09T15:35:21.994Z,24.80
2024-05-09T15:37:49.102Z,24.90
2024-05-09T15:40:26.036Z,24.80
2024-05-09T15:43:02.251Z,24.50
2024-05-09T15:45:29.600Z,24.40
2024-05-09T15:47:57.615Z,24.40
2024-05-09T15:50:35.368Z,24.60
2024-05-09T15:53:07.000Z,24.70
2024-05-09T15:55:34.945Z,24.70
2024-05-09T15:58:03.425Z,24.70
2024-05-09T16:00:38.399Z,24.80
2024-05-09T16:03:13.465Z,24.70
2024-05-09T16:05:48.235Z,24.70
2024-05-09T16:08:16.102Z,24.90
2024-05-09T16:10:45.891Z,24.90
2024-05-09T16:13:14.037Z,24.70
2024-05-09T16:15:41.401Z,24.70
2024-05-09T16:18:08.684Z,24.60
2024-05-09T16:20:40.154Z,24.50
2024-05-09T16:23:09.892Z,24.10
2024-05-09T16:25:37.582Z,23.90
2024-05-09T16:28:08.700Z,23.90
2024-05-09T16:30:38.509Z,24.00
2024-05-09T16:33:06.256Z,24.10
2024-05-09T16:35:34.632Z,24.00
2024-05-09T16:38:03.007Z,23.70
2024-05-09T16:40:37.345Z,23.70
2024-05-09T16:43:08.705Z,23.60
2024-05-09T16:45:36.620Z,23.50
2024-05-09T16:48:04.389Z,23.40
2024-05-09T16:50:34.486Z,23.40
2024-05-09T16:53:06.690Z,23.40
2024-05-09T16:55:35.021Z,23.30
2024-05-09T16:58:02.958Z,23.20
2024-05-09T17:00:39.436Z,23.10
2024-05-09T17:03:11.348Z,23.00
2024-05-09T17:05:39.409Z,22.90
2024-05-09T17:08:07.397Z,22.90
2024-05-09T17:10:35.941Z,22.80
2024-05-09T17:13:05.111Z,22.80
2024-05-09T17:15:33.869Z,22.60
2024-05-09T17:18:01.886Z,22.50
2024-05-09T17:20:33.897Z,22.50
2024-05-09T17:23:04.598Z,22.40
2024-05-09T17:25:32.211Z,22.30
2024-05-09T17:28:05.990Z,22.30
2024-05-09T17:30:36.816Z,22.20
2024-05-09T17:33:07.747Z,22.10
2024-05-09T17:35:38.329Z,22.00
2024-05-09T17:38:06.538Z,22.00
2024-05-09T17:40:36.474Z,21.90
2024-05-09T17:43:10.534Z,21.80
2024-05-09T17:45:40.797Z,21.80
2024-05-09T17:48:10.265Z,21.70
2024-05-09T17:50:38.603Z,21.60
2024-05-09T17:53:06.521Z,21.50
2024-05-09T17:55:34.501Z,21.40
2024-05-09T17:58:02.185Z,21.30
2024-05-09T18:00:37.358Z,21.20
2024-05-09T18:03:10.322Z,21.10
2024-05-09T18:05:37.959Z,21.00
2024-05-09T18:08:06.606Z,20.90
2024-05-09T18:10:37.899Z,20.80
2024-05-09T18:13:08.715Z,20.70
2024-05-09T18:15:36.326Z,20.60
2024-05-09T18:18:04.524Z,20.60
2024-05-09T18:20:40.350Z,20.60
2024-05-09T18:23:11.583Z,20.50
2024-05-09T18:25:38.635Z,20.40
2024-05-09T18:28:05.978Z,20.30
2024-05-09T18:30:35.565Z,20.20
2024-05-09T18:33:05.861Z,20.00
2024-05-09T18:35:34.213Z,19.90
2024-05-09T18:38:01.179Z,19.70
2024-05-09T18:40:34.008Z,19.60
2024-05-09T18:43:05.651Z,19.50
2024-05-09T18:45:34.128Z,19.40
2024-05-09T18:48:01.299Z,19.30
2024-05-09T18:50:34.930Z,19.10
2024-05-09T18:53:12.922Z,18.90
2024-05-09T18:55:41.790Z,18.80
2024-05-09T18:58:08.819Z,18.70
2024-05-09T19:00:38.953Z,18.60
2024-05-09T19:03:10.777Z,18.50
2024-05-09T19:05:40.661Z,18.30
2024-05-09T19:08:08.800Z,18.20
2024-05-09T19:10:38.186Z,18.10
2024-05-09T19:13:09.406Z,18.00
2024-05-09T19:15:40.157Z,17.90
2024-05-09T19:18:08.108Z,17.80
2024-05-09T19:20:36.615Z,17.70
2024-05-09T19:23:05.655Z,17.60
2024-05-09T19:25:33.313Z,17.50
2024-05-09T19:28:01.118Z,17.40
2024-05-09T19:30:37.642Z,17.30
2024-05-09T19:33:08.931Z,17.20
2024-05-09T19:35:36.305Z,17.10
2024-05-09T19:38:03.684Z,17.10
2024-05-09T19:40:32.909Z,16.90
2024-05-09T19:43:02.566Z,16.90
2024-05-09T19:45:30.524Z,16.70
2024-05-09T19:47:57.623Z,16.70
2024-05-09T19:50:32.523Z,16.60
2024-05-09T19:53:08.230Z,16.50
2024-05-09T19:55:35.361Z,16.40
2024-05-09T19:58:08.654Z,16.30
2024-05-09T20:00:38.633Z,16.20
2024-05-09T20:03:08.305Z,16.10
2024-05-09T20:05:36.423Z,16.00
2024-05-09T20:08:04.478Z,15.90
2024-05-09T20:10:33.752Z,15.80
2024-05-09T20:13:03.298Z,15.80
2024-05-09T20:15:34.518Z,15.70
2024-05-09T20:18:02.058Z,15.60
2024-05-09T20:20:37.040Z,15.50
2024-05-09T20:23:08.483Z,15.40
2024-05-09T20:25:35.550Z,15.30
2024-05-09T20:28:02.838Z,15.30
2024-05-09T20:30:32.870Z,15.20
2024-05-09T20:33:07.070Z,15.10
2024-05-09T20:35:35.772Z,15.00
2024-05-09T20:38:03.740Z,14.90
2024-05-09T20:40:35.785Z,14.80
2024-05-09T20:43:06.743Z,14.80
2024-05-09T20:45:34.548Z,14.70
2024-05-09T20:48:02.118Z,14.60
2024-05-09T20:50:37.078Z,14.50
2024-05-09T20:53:09.509Z,14.50
2024-05-09T20:55:36.691Z,14.40
2024-05-09T20:58:03.818Z,14.30
2024-05-09T21:00:39.244Z,14.30
2024-05-09T21:03:10.037Z,14.20
2024-05-09T21:05:37.354Z,14.10
2024-05-09T21:08:04.731Z,14.00
2024-05-09T21:10:33.473Z,13.90
2024-05-09T21:13:03.004Z,13.80
2024-05-09T21:15:31.084Z,13.80
2024-05-09T21:17:58.360Z,13.70
2024-05-09T21:20:31.089Z,13.60
2024-05-09T21:22:59.755Z,13.60
2024-05-09T21:25:26.939Z,13.50
2024-05-09T21:27:54.106Z,13.50
2024-05-09T21:32:51.402Z,13.40
2024-05-09T21:35:18.705Z,13.40
2024-05-09T21:37:45.719Z,13.30
2024-05-09T21:40:17.021Z,13.30
2024-05-09T21:42:51.064Z,13.20
2024-05-09T21:45:18.010Z,13.10
2024-05-09T21:47:45.124Z,13.10
2024-05-09T21:50:22.138Z,13.10
2024-05-09T21:52:50.513Z,13.00
2024-05-09T21:55:17.532Z,13.00
2024-05-09T21:57:45.304Z,12.90
2024-05-09T22:00:28.143Z,12.90
2024-05-09T22:03:02.273Z,12.90
2024-05-09T22:05:29.611Z,12.90
2024-05-09T22:07:56.962Z,12.80
2024-05-09T22:10:30.590Z,12.80
2024-05-09T22:13:01.582Z,12.80
2024-05-09T22:15:28.907Z,12.70
2024-05-09T22:17:57.262Z,12.70
2024-05-09T22:20:33.872Z,12.70
2024-05-09T22:23:04.883Z,12.70
2024-05-09T22:25:32.621Z,12.70
2024-05-09T22:28:01.290Z,12.60
2024-05-09T22:30:35.768Z,12.60
2024-05-09T22:33:07.416Z,12.50
2024-05-09T22:35:34.686Z,12.40
2024-05-09T22:38:02.993Z,12.40
2024-05-09T22:40:38.940Z,12.40
2024-05-09T22:43:16.264Z,12.30
2024-05-09T22:45:43.360Z,12.30
2024-05-09T22:48:10.556Z,12.20
2024-05-09T22:50:37.634Z,12.10
2024-05-09T22:53:05.476Z,12.10
2024-05-09T22:55:32.479Z,12.00
2024-05-09T22:57:59.561Z,12.00
2024-05-09T23:00:31.483Z,11.90
2024-05-09T23:03:01.436Z,11.90
2024-05-09T23:05:29.007Z,11.90
2024-05-09T23:07:56.086Z,11.90
2024-05-09T23:10:31.046Z,11.80
2024-05-09T23:13:02.674Z,11.80
2024-05-09T23:15:29.887Z,11.80
2024-05-09T23:17:57.442Z,11.80
2024-05-09T23:22:54.698Z,11.80
2024-05-09T23:25:21.651Z,11.70
2024-05-09T23:27:48.667Z,11.70
2024-05-09T23:30:25.565Z,11.60
2024-05-09T23:32:59.844Z,11.60
2024-05-09T23:35:26.819Z,11.50
2024-05-09T23:37:53.754Z,11.40
2024-05-09T23:40:23.316Z,11.40
2024-05-09T23:42:51.033Z,11.30
2024-05-09T23:45:17.995Z,11.40
2024-05-09T23:47:45.916Z,11.30
2024-05-09T23:50:17.076Z,11.30
2024-05-09T23:52:50.660Z,11.30
2024-05-09T23:55:17.984Z,11.30
